Time;durP1;ratioP1;P1;durP2;ratioP2;P2;SDS_P1;SDS_P2;PMS_P1;PMS_P2;Temp;Humidity;BMP_temperature;BMP_pressure;BME280_temperature;BME280_humidity;BME280_pressure;Samples;Min_cycle;Max_cycle;Signal;HPM_P1;HPM_P2
2023/07/02 00:00:05;;;;;;;8.77;5.70;;;16.80;99.90;;;;;;4984316;28;20088;-78
2023/07/02 00:02:32;;;;;;;7.47;5.57;;;16.70;99.90;;;;;;4982749;28;20138;-78
2023/07/02 00:04:59;;;;;;;7.70;5.88;;;16.70;99.90;;;;;;4978787;28;20575;-79
2023/07/02 00:07:26;;;;;;;7.15;5.60;;;16.60;99.90;;;;;;4983521;28;20057;-78
2023/07/02 00:09:53;;;;;;;7.68;5.90;;;16.60;99.90;;;;;;4948352;28;20457;-78
2023/07/02 00:12:19;;;;;;;7.43;5.57;;;16.50;99.90;;;;;;4958470;28;20054;-79
2023/07/02 00:14:46;;;;;;;7.75;5.32;;;16.50;99.90;;;;;;4976177;28;20493;-78
2023/07/02 00:17:13;;;;;;;7.80;5.57;;;16.50;99.90;;;;;;4950754;28;20046;-78
2023/07/02 00:19:41;;;;;;;10.13;5.97;;;16.40;99.90;;;;;;4951357;28;20072;-79
2023/07/02 00:22:09;;;;;;;8.07;5.97;;;16.30;99.90;;;;;;4953575;28;20132;-78
2023/07/02 00:24:36;;;;;;;8.70;6.07;;;16.30;99.90;;;;;;4983586;28;20128;-78
2023/07/02 00:27:03;;;;;;;9.25;6.57;;;16.30;99.90;;;;;;4955271;28;20066;-79
2023/07/02 00:29:30;;;;;;;8.40;5.68;;;16.20;99.90;;;;;;4971403;28;20413;-78
2023/07/02 00:31:57;;;;;;;6.95;5.70;;;16.20;99.90;;;;;;4984036;28;20053;-79
2023/07/02 00:34:24;;;;;;;8.45;5.97;;;16.20;99.90;;;;;;4956735;28;20529;-79
2023/07/02 00:36:51;;;;;;;9.07;6.75;;;16.10;99.90;;;;;;4954840;28;20054;-77
2023/07/02 00:39:18;;;;;;;9.68;6.57;;;16.10;99.90;;;;;;4948651;28;20062;-78
2023/07/02 00:41:47;;;;;;;6.53;5.45;;;16.10;99.90;;;;;;4960783;28;20053;-79
2023/07/02 00:44:14;;;;;;;8.85;6.15;;;16.00;99.90;;;;;;4979644;28;20469;-78
2023/07/02 00:46:41;;;;;;;8.40;6.03;;;16.00;99.90;;;;;;4967350;28;20121;-79
2023/07/02 00:49:08;;;;;;;8.68;6.43;;;16.00;99.90;;;;;;4967946;28;20751;-79
2023/07/02 00:51:35;;;;;;;10.10;6.40;;;16.00;99.90;;;;;;4959258;28;20164;-79
2023/07/02 00:54:01;;;;;;;8.52;6.35;;;15.90;99.90;;;;;;4963446;28;20097;-79
2023/07/02 00:56:28;;;;;;;7.25;5.53;;;15.90;99.90;;;;;;4983702;28;20061;-78
2023/07/02 00:58:58;;;;;;;7.43;5.60;;;15.90;99.90;;;;;;4952059;28;20388;-79
2023/07/02 01:01:27;;;;;;;7.97;5.55;;;15.90;99.90;;;;;;4958472;28;20112;-79
2023/07/02 01:03:59;;;;;;;9.85;6.47;;;15.80;99.90;;;;;;4983792;28;20111;-79
2023/07/02 01:06:35;;;;;;;7.97;5.68;;;15.80;99.90;;;;;;4966771;28;20054;-79
2023/07/02 01:09:04;;;;;;;8.48;5.80;;;15.80;99.90;;;;;;4936119;28;20076;-80
2023/07/02 01:11:34;;;;;;;9.80;6.07;;;15.70;99.90;;;;;;4973863;28;20050;-78
2023/07/02 01:14:19;;;;;;;7.68;5.40;;;15.70;99.90;;;;;;4947051;28;20137;-78
2023/07/02 01:16:46;;;;;;;8.23;5.70;;;15.70;99.90;;;;;;4984043;28;20121;-78
2023/07/02 01:19:42;;;;;;;9.00;5.85;;;15.60;99.90;;;;;;4951120;28;20505;-79
2023/07/02 01:22:09;;;;;;;6.50;4.75;;;15.60;99.90;;;;;;4964209;28;20050;-78
2023/07/02 01:24:38;;;;;;;6.57;4.97;;;15.60;99.90;;;;;;4966814;28;20116;-78
2023/07/02 01:27:05;;;;;;;6.55;4.80;;;15.60;99.90;;;;;;4966521;28;20042;-78
2023/07/02 01:29:32;;;;;;;9.10;5.75;;;15.50;99.90;;;;;;4951159;28;20355;-78
2023/07/02 01:31:58;;;;;;;8.90;5.22;;;15.50;99.90;;;;;;4961309;28;20116;-79
2023/07/02 01:34:25;;;;;;;6.60;4.75;;;15.50;99.90;;;;;;4924229;28;20395;-77
2023/07/02 01:36:52;;;;;;;6.85;4.78;;;15.50;99.90;;;;;;4934264;28;20066;-78
2023/07/02 01:39:19;;;;;;;7.38;4.78;;;15.40;99.90;;;;;;4951108;28;20054;-78
2023/07/02 01:41:50;;;;;;;7.97;5.03;;;15.30;99.90;;;;;;4976426;28;20065;-78
2023/07/02 01:44:17;;;;;;;6.93;5.13;;;15.30;99.90;;;;;;4974091;28;20049;-78
2023/07/02 01:46:48;;;;;;;7.28;4.93;;;15.30;99.90;;;;;;4973694;28;20069;-78
2023/07/02 01:49:18;;;;;;;6.85;4.72;;;15.30;99.90;;;;;;4957293;28;20129;-78
2023/07/02 01:51:49;;;;;;;6.88;4.47;;;15.20;99.90;;;;;;4977919;28;20444;-78
2023/07/02 01:54:15;;;;;;;5.25;4.15;;;15.20;99.90;;;;;;4936400;28;20117;-78
2023/07/02 01:56:42;;;;;;;5.82;4.22;;;15.20;99.90;;;;;;4949331;28;20046;-78
2023/07/02 01:59:09;;;;;;;6.07;4.38;;;15.10;99.90;;;;;;4950822;28;20074;-79
2023/07/02 02:01:36;;;;;;;6.78;4.30;;;15.10;99.90;;;;;;4983218;28;20208;-78
2023/07/02 02:04:03;;;;;;;6.78;4.88;;;15.10;99.90;;;;;;5005290;28;20405;-78
2023/07/02 02:06:29;;;;;;;5.15;4.28;;;15.10;99.90;;;;;;4987369;28;20081;-78
2023/07/02 02:08:56;;;;;;;8.63;5.40;;;15.00;99.90;;;;;;4972284;28;20102;-78
2023/07/02 02:11:23;;;;;;;5.50;4.40;;;15.00;99.90;;;;;;4967100;28;20538;-79
2023/07/02 02:13:50;;;;;;;5.03;3.85;;;14.90;99.90;;;;;;4987656;28;20457;-79
2023/07/02 02:16:17;;;;;;;5.55;4.28;;;14.90;99.90;;;;;;4971469;28;20173;-79
2023/07/02 02:18:44;;;;;;;5.60;3.85;;;14.90;99.90;;;;;;4987884;28;20139;-78
2023/07/02 02:21:11;;;;;;;5.20;3.88;;;14.80;99.90;;;;;;5004306;28;20057;-78
2023/07/02 02:23:38;;;;;;;7.78;4.63;;;14.80;99.90;;;;;;4971688;28;20136;-79
2023/07/02 02:26:04;;;;;;;6.55;4.57;;;14.80;99.90;;;;;;4987374;28;20058;-79
2023/07/02 02:28:31;;;;;;;6.13;4.32;;;14.70;99.90;;;;;;4987327;28;20049;-79
2023/07/02 02:30:58;;;;;;;5.15;3.75;;;14.70;99.90;;;;;;4970850;28;20133;-79
2023/07/02 02:33:25;;;;;;;5.13;3.63;;;14.70;99.90;;;;;;4987239;28;20042;-79
2023/07/02 02:35:51;;;;;;;5.50;4.22;;;14.60;99.90;;;;;;4970974;28;20054;-79
2023/07/02 02:38:18;;;;;;;5.20;3.40;;;14.60;99.90;;;;;;4971961;28;20143;-79
2023/07/02 02:40:45;;;;;;;5.90;3.75;;;14.50;99.90;;;;;;4954655;28;20054;-79
2023/07/02 02:43:12;;;;;;;6.05;4.18;;;14.50;99.90;;;;;;4986709;28;20053;-79
2023/07/02 02:45:39;;;;;;;6.07;4.22;;;14.40;99.90;;;;;;4986915;28;20417;-79
2023/07/02 02:48:06;;;;;;;6.13;3.72;;;14.40;99.90;;;;;;4971208;28;20054;-79
2023/07/02 02:50:33;;;;;;;6.00;4.05;;;14.40;99.90;;;;;;4954488;28;20088;-79
2023/07/02 02:52:59;;;;;;;5.32;3.47;;;14.40;99.90;;;;;;4970849;28;20096;-79
2023/07/02 02:55:27;;;;;;;5.18;4.20;;;14.30;99.90;;;;;;4986317;28;20058;-79
2023/07/02 02:57:54;;;;;;;5.63;3.40;;;14.30;99.90;;;;;;4955450;28;20128;-79
2023/07/02 03:00:21;;;;;;;6.80;3.97;;;14.30;99.90;;;;;;4955264;28;20467;-79
2023/07/02 03:02:48;;;;;;;4.65;4.07;;;14.20;99.90;;;;;;4932029;28;1116069;-77
2023/07/02 03:05:15;;;;;;;6.10;3.75;;;14.20;99.90;;;;;;4987539;28;20050;-79
2023/07/02 03:07:42;;;;;;;6.18;4.07;;;14.20;99.90;;;;;;4987984;28;20058;-79
2023/07/02 03:10:09;;;;;;;5.75;3.95;;;14.20;99.90;;;;;;4971526;28;20053;-78
2023/07/02 03:12:36;;;;;;;5.78;3.70;;;14.20;99.90;;;;;;4986851;28;20529;-78
2023/07/02 03:15:03;;;;;;;4.75;3.17;;;14.20;99.90;;;;;;4988042;28;20081;-78
2023/07/02 03:17:30;;;;;;;4.85;3.47;;;14.20;99.90;;;;;;4987909;28;20124;-79
2023/07/02 03:19:57;;;;;;;4.75;3.40;;;14.10;99.90;;;;;;4986795;28;20061;-79
2023/07/02 03:22:23;;;;;;;4.82;3.60;;;14.10;99.90;;;;;;4987462;28;20054;-77
2023/07/02 03:24:50;;;;;;;5.63;3.53;;;14.00;99.90;;;;;;5004709;28;20116;-78
2023/07/02 03:27:17;;;;;;;6.20;4.05;;;14.00;99.90;;;;;;4986810;28;20473;-78
2023/07/02 03:29:43;;;;;;;5.07;3.90;;;14.00;99.90;;;;;;4987657;28;20068;-78
2023/07/02 03:32:10;;;;;;;5.57;4.10;;;14.00;99.90;;;;;;4968018;28;20046;-77
2023/07/02 03:34:37;;;;;;;4.82;3.10;;;14.00;99.90;;;;;;4987280;28;20058;-78
2023/07/02 03:37:04;;;;;;;4.38;2.92;;;14.00;99.90;;;;;;4986867;28;20077;-78
2023/07/02 03:39:31;;;;;;;5.00;3.20;;;13.90;99.90;;;;;;4955448;28;20141;-78
2023/07/02 03:41:57;;;;;;;4.53;3.05;;;13.90;99.90;;;;;;4966871;28;20047;-78
2023/07/02 03:44:24;;;;;;;4.47;3.22;;;13.90;99.90;;;;;;4952685;28;20046;-78
2023/07/02 03:46:51;;;;;;;6.25;3.30;;;13.80;99.90;;;;;;4967438;28;20077;-79
2023/07/02 03:49:18;;;;;;;4.80;3.03;;;13.80;99.90;;;;;;4968068;28;20054;-80
2023/07/02 03:51:44;;;;;;;5.78;3.30;;;13.80;99.90;;;;;;4967444;28;20046;-80
2023/07/02 03:54:11;;;;;;;5.80;3.55;;;13.80;99.90;;;;;;5001255;28;20058;-79
2023/07/02 03:56:38;;;;;;;4.80;3.45;;;13.80;99.90;;;;;;4961111;28;20057;-79
2023/07/02 03:59:06;;;;;;;6.03;3.08;;;13.70;99.90;;;;;;5000080;28;20148;-79
2023/07/02 04:01:32;;;;;;;5.78;3.03;;;13.70;99.90;;;;;;4958811;28;20044;-80
2023/07/02 04:03:59;;;;;;;5.03;3.22;;;13.70;99.90;;;;;;4961139;28;20053;-79
2023/07/02 04:06:26;;;;;;;4.95;2.75;;;13.70;99.90;;;;;;4984470;28;20063;-80
2023/07/02 04:08:53;;;;;;;6.18;3.35;;;13.70;99.90;;;;;;4986338;28;20492;-79
2023/07/02 04:11:20;;;;;;;4.75;3.35;;;13.70;99.90;;;;;;4997439;28;20768;-79
2023/07/02 04:13:47;;;;;;;5.82;3.60;;;13.60;99.90;;;;;;4952407;28;20045;-78
2023/07/02 04:16:14;;;;;;;5.28;3.05;;;13.60;99.90;;;;;;4958947;28;20381;-78
2023/07/02 04:18:41;;;;;;;5.50;3.28;;;13.60;99.90;;;;;;4980160;28;20062;-77
2023/07/02 04:21:08;;;;;;;5.50;3.45;;;13.60;99.90;;;;;;4967710;28;20073;-78
2023/07/02 04:23:34;;;;;;;5.88;3.67;;;13.60;99.90;;;;;;4983221;28;20462;-77
2023/07/02 04:26:01;;;;;;;5.18;2.80;;;13.60;99.90;;;;;;4960850;28;20125;-77
2023/07/02 04:28:48;;;;;;;6.05;3.22;;;13.60;99.90;;;;;;4966448;28;20401;-78
2023/07/02 04:31:14;;;;;;;4.93;3.42;;;13.70;99.90;;;;;;4997466;28;20046;-78
2023/07/02 04:33:42;;;;;;;5.30;3.30;;;13.70;99.90;;;;;;4993875;28;20133;-79
2023/07/02 04:36:09;;;;;;;5.05;3.08;;;13.70;99.90;;;;;;4977259;28;20080;-78
2023/07/02 04:38:35;;;;;;;4.07;3.20;;;13.70;99.90;;;;;;5002585;28;20042;-78
2023/07/02 04:41:05;;;;;;;4.82;2.80;;;13.70;99.90;;;;;;5006136;28;20157;-78
2023/07/02 04:43:33;;;;;;;4.78;2.97;;;13.70;99.90;;;;;;4975847;28;20061;-77
2023/07/02 04:46:00;;;;;;;5.15;3.08;;;13.70;99.90;;;;;;4987878;28;20093;-74
2023/07/02 04:48:27;;;;;;;4.22;3.08;;;13.70;99.90;;;;;;5000571;28;20054;-74
2023/07/02 04:50:54;;;;;;;5.80;3.67;;;13.70;99.90;;;;;;5002216;28;20105;-75
2023/07/02 04:53:20;;;;;;;5.72;3.53;;;13.70;99.90;;;;;;4984548;28;20046;-75
2023/07/02 04:55:47;;;;;;;6.28;3.25;;;13.70;99.90;;;;;;5001942;28;20046;-74
2023/07/02 04:58:14;;;;;;;6.10;3.60;;;13.70;99.90;;;;;;4984389;28;20045;-73
2023/07/02 05:00:41;;;;;;;4.30;3.05;;;13.70;99.90;;;;;;5002755;28;20433;-74
2023/07/02 05:03:08;;;;;;;5.22;3.05;;;13.80;99.90;;;;;;4995963;28;20256;-74
2023/07/02 05:05:35;;;;;;;4.75;2.78;;;13.80;99.90;;;;;;4980918;28;20712;-74
2023/07/02 05:08:04;;;;;;;4.82;3.05;;;13.90;99.90;;;;;;4967200;28;20050;-74
2023/07/02 05:10:31;;;;;;;4.75;3.20;;;13.90;99.90;;;;;;4984561;28;20046;-74
2023/07/02 05:12:58;;;;;;;5.50;3.53;;;13.90;99.90;;;;;;4983953;28;20049;-74
2023/07/02 05:15:26;;;;;;;5.65;3.53;;;13.90;99.90;;;;;;5002693;28;20489;-75
2023/07/02 05:17:52;;;;;;;8.00;4.25;;;14.00;99.90;;;;;;4984998;28;20073;-75
2023/07/02 05:20:19;;;;;;;6.28;4.07;;;14.00;99.90;;;;;;4952298;28;20182;-74
2023/07/02 05:22:46;;;;;;;4.78;3.45;;;14.10;99.90;;;;;;4984657;28;20046;-75
2023/07/02 05:25:13;;;;;;;7.55;4.40;;;14.00;99.90;;;;;;4984252;28;20049;-74
2023/07/02 05:27:40;;;;;;;7.80;4.13;;;14.10;99.90;;;;;;5001949;28;20053;-74
2023/07/02 05:30:07;;;;;;;6.43;3.78;;;14.10;99.90;;;;;;5002372;28;20050;-74
2023/07/02 05:32:34;;;;;;;5.57;3.40;;;14.20;99.90;;;;;;4984088;28;20076;-74
2023/07/02 05:35:01;;;;;;;7.28;4.30;;;14.20;99.90;;;;;;4985850;28;20053;-73
2023/07/02 05:37:28;;;;;;;5.05;3.38;;;14.30;99.90;;;;;;5003351;28;20405;-73
2023/07/02 05:39:54;;;;;;;6.78;3.72;;;14.30;99.90;;;;;;5003397;28;20093;-73
2023/07/02 05:42:21;;;;;;;7.05;4.18;;;14.30;99.90;;;;;;5003074;28;20050;-74
2023/07/02 05:44:48;;;;;;;5.45;3.47;;;14.40;99.90;;;;;;4967030;28;20069;-75
2023/07/02 05:47:15;;;;;;;5.80;3.50;;;14.40;99.90;;;;;;4984249;28;20117;-74
2023/07/02 05:49:42;;;;;;;6.90;4.70;;;14.50;99.90;;;;;;4984187;28;20057;-74
2023/07/02 05:52:09;;;;;;;7.38;4.38;;;14.50;99.90;;;;;;4989365;28;20082;-74
2023/07/02 05:54:40;;;;;;;6.18;4.10;;;14.50;99.90;;;;;;4985709;28;20484;-73
2023/07/02 05:57:06;;;;;;;4.78;3.47;;;14.50;99.90;;;;;;5003000;28;20129;-74
2023/07/02 05:59:33;;;;;;;7.13;4.38;;;14.60;99.90;;;;;;5002957;28;20050;-74
2023/07/02 06:02:00;;;;;;;6.90;3.97;;;14.60;99.90;;;;;;4984833;28;20073;-74
2023/07/02 06:04:27;;;;;;;7.43;4.35;;;14.60;99.90;;;;;;4985608;28;20111;-73
2023/07/02 06:06:54;;;;;;;4.50;3.60;;;14.70;99.90;;;;;;5002953;28;20054;-73
2023/07/02 06:09:21;;;;;;;6.20;3.90;;;14.80;99.90;;;;;;5003182;28;20049;-73
2023/07/02 06:11:48;;;;;;;6.22;3.85;;;14.80;99.90;;;;;;4984119;28;20108;-73
2023/07/02 06:14:14;;;;;;;5.97;3.72;;;14.80;99.90;;;;;;5002786;28;20046;-74
2023/07/02 06:16:42;;;;;;;6.53;3.75;;;14.90;99.90;;;;;;5002360;28;20053;-74
2023/07/02 06:19:09;;;;;;;5.68;4.05;;;14.90;99.90;;;;;;5001961;28;20046;-74
2023/07/02 06:21:36;;;;;;;6.95;4.40;;;14.90;99.90;;;;;;4968908;28;20509;-73
2023/07/02 06:24:03;;;;;;;5.65;3.50;;;14.90;99.90;;;;;;4985513;28;20349;-74
2023/07/02 06:26:32;;;;;;;5.40;3.65;;;15.00;99.90;;;;;;5001659;28;20068;-74
2023/07/02 06:28:58;;;;;;;6.28;4.10;;;15.00;99.90;;;;;;5003122;28;20606;-74
2023/07/02 06:31:25;;;;;;;6.22;3.45;;;15.00;99.90;;;;;;4985591;28;20057;-74
2023/07/02 06:33:52;;;;;;;6.63;4.00;;;15.10;99.90;;;;;;4984538;28;20058;-74
2023/07/02 06:36:19;;;;;;;5.88;4.05;;;15.10;99.90;;;;;;4984447;28;20062;-73
2023/07/02 06:38:46;;;;;;;7.13;3.47;;;15.20;99.90;;;;;;4985235;28;20612;-73
2023/07/02 06:41:13;;;;;;;5.82;3.33;;;15.20;99.90;;;;;;5001520;28;20112;-73
2023/07/02 06:43:42;;;;;;;6.65;3.70;;;15.20;99.90;;;;;;5001811;28;20161;-75
2023/07/02 06:46:10;;;;;;;4.00;2.95;;;15.30;99.90;;;;;;4984801;28;20088;-74
2023/07/02 06:48:37;;;;;;;5.57;3.33;;;15.40;99.90;;;;;;4984478;28;20489;-74
2023/07/02 06:51:04;;;;;;;4.68;3.17;;;15.40;99.90;;;;;;5002332;28;20058;-74
2023/07/02 06:53:31;;;;;;;7.10;3.80;;;15.40;99.90;;;;;;5001310;28;20132;-74
2023/07/02 06:55:58;;;;;;;4.82;3.05;;;15.40;99.90;;;;;;5001959;28;20462;-74
2023/07/02 06:58:24;;;;;;;6.78;3.78;;;15.50;99.90;;;;;;4984596;28;20585;-74
2023/07/02 07:00:51;;;;;;;5.80;3.90;;;15.60;99.90;;;;;;4984476;28;20050;-74
2023/07/02 07:03:18;;;;;;;5.25;3.42;;;15.60;99.90;;;;;;5000435;28;20584;-74
2023/07/02 07:05:45;;;;;;;5.93;3.80;;;15.70;99.90;;;;;;4968243;28;20050;-73
2023/07/02 07:08:12;;;;;;;4.82;3.33;;;15.70;99.90;;;;;;5002075;28;20084;-74
2023/07/02 07:10:39;;;;;;;4.72;3.15;;;15.70;99.90;;;;;;4968142;28;20472;-74
2023/07/02 07:13:06;;;;;;;5.15;3.20;;;15.70;99.90;;;;;;4983794;28;20097;-74
2023/07/02 07:15:35;;;;;;;5.13;3.22;;;15.70;99.90;;;;;;4968938;28;20054;-74
2023/07/02 07:18:02;;;;;;;6.07;3.00;;;15.80;99.90;;;;;;4984518;28;20042;-75
2023/07/02 07:20:32;;;;;;;5.60;3.47;;;15.90;99.90;;;;;;4984635;28;20056;-74
2023/07/02 07:22:59;;;;;;;7.30;3.85;;;16.00;99.90;;;;;;5000965;28;20496;-74
2023/07/02 07:25:26;;;;;;;4.70;3.40;;;16.00;99.90;;;;;;4983730;28;20424;-74
2023/07/02 07:27:53;;;;;;;6.93;4.05;;;16.00;99.90;;;;;;5001338;28;20555;-73
2023/07/02 07:30:22;;;;;;;5.93;3.85;;;16.00;99.90;;;;;;5001619;28;20054;-75
2023/07/02 07:32:50;;;;;;;7.10;4.20;;;16.10;99.90;;;;;;4983635;28;20060;-75
2023/07/02 07:35:18;;;;;;;5.78;3.53;;;16.20;99.90;;;;;;4983551;28;20426;-75
2023/07/02 07:37:45;;;;;;;5.18;3.35;;;16.30;99.90;;;;;;4984376;28;20490;-75
2023/07/02 07:40:12;;;;;;;5.05;3.28;;;16.40;99.90;;;;;;4967930;28;20092;-74
2023/07/02 07:42:39;;;;;;;6.90;4.03;;;16.40;99.90;;;;;;5000410;28;20593;-75
2023/07/02 07:45:06;;;;;;;4.78;3.58;;;16.40;99.90;;;;;;4984136;28;20050;-75
2023/07/02 07:47:33;;;;;;;5.72;3.63;;;16.40;99.90;;;;;;4968041;28;20143;-74
2023/07/02 07:50:00;;;;;;;5.68;3.83;;;16.50;99.90;;;;;;5000905;28;20680;-75
2023/07/02 07:52:27;;;;;;;5.78;3.75;;;16.50;99.90;;;;;;5001226;28;20108;-75
2023/07/02 07:54:54;;;;;;;5.25;3.30;;;16.60;99.90;;;;;;4983319;28;20100;-75
2023/07/02 07:57:20;;;;;;;5.53;3.75;;;16.60;99.90;;;;;;4983252;28;20053;-74
2023/07/02 07:59:47;;;;;;;5.75;3.28;;;16.60;99.90;;;;;;4984128;28;20058;-74
2023/07/02 08:02:14;;;;;;;5.50;3.28;;;16.70;99.90;;;;;;4982585;28;20116;-74
2023/07/02 08:04:41;;;;;;;7.28;3.75;;;16.70;99.90;;;;;;4951413;28;20420;-74
2023/07/02 08:07:09;;;;;;;4.45;3.13;;;16.80;99.90;;;;;;5001773;28;20157;-74
2023/07/02 08:09:35;;;;;;;6.32;3.38;;;16.90;99.90;;;;;;5001186;28;20090;-74
2023/07/02 08:12:03;;;;;;;4.68;2.72;;;17.00;99.90;;;;;;5000045;28;20140;-74
2023/07/02 08:14:30;;;;;;;4.25;2.75;;;17.00;99.90;;;;;;4983498;28;20045;-74
2023/07/02 08:16:57;;;;;;;6.10;3.67;;;17.00;99.90;;;;;;5000346;28;20481;-74
2023/07/02 08:19:24;;;;;;;5.15;3.50;;;17.10;99.90;;;;;;4983753;28;20570;-74
2023/07/02 08:21:54;;;;;;;6.13;3.10;;;17.10;99.90;;;;;;5000792;28;20491;-74
2023/07/02 08:24:21;;;;;;;5.72;3.28;;;17.20;99.90;;;;;;5000786;28;20077;-75
2023/07/02 08:26:49;;;;;;;4.78;3.25;;;17.20;99.90;;;;;;5000121;28;20885;-75
2023/07/02 08:29:16;;;;;;;4.10;2.80;;;17.30;99.90;;;;;;4983393;28;20053;-75
2023/07/02 08:31:43;;;;;;;4.97;3.40;;;17.30;99.90;;;;;;4968350;28;20054;-75
2023/07/02 08:34:10;;;;;;;4.30;2.80;;;17.40;99.90;;;;;;5003665;28;20046;-76
2023/07/02 08:36:36;;;;;;;5.97;3.20;;;17.40;99.90;;;;;;5003924;28;20053;-75
2023/07/02 08:39:04;;;;;;;4.18;2.80;;;17.50;99.90;;;;;;5004758;28;20062;-75
2023/07/02 08:41:42;;;;;;;5.07;2.90;;;17.50;99.90;;;;;;4986050;28;20049;-75
2023/07/02 08:44:09;;;;;;;4.75;3.00;;;17.60;99.90;;;;;;4974450;28;20046;-75
2023/07/02 08:46:35;;;;;;;4.32;2.85;;;17.70;99.90;;;;;;4974409;28;20058;-75
2023/07/02 08:49:02;;;;;;;5.78;2.83;;;17.80;99.90;;;;;;5007708;28;20056;-75
2023/07/02 08:51:29;;;;;;;5.10;2.67;;;17.90;99.90;;;;;;4990029;28;20054;-75
2023/07/02 08:53:56;;;;;;;3.58;2.50;;;18.00;99.90;;;;;;5007574;28;20125;-75
2023/07/02 08:56:23;;;;;;;5.88;2.67;;;18.20;99.90;;;;;;4973282;28;20081;-75
2023/07/02 08:58:49;;;;;;;4.13;2.90;;;18.20;99.90;;;;;;4990616;28;20136;-75
2023/07/02 09:01:16;;;;;;;4.88;2.72;;;18.30;99.90;;;;;;4990285;28;20852;-75
2023/07/02 09:03:43;;;;;;;4.68;2.88;;;18.50;99.90;;;;;;5006273;28;20076;-75
2023/07/02 09:06:10;;;;;;;4.35;2.33;;;18.60;99.50;;;;;;4973739;28;20085;-75
2023/07/02 09:08:38;;;;;;;4.55;3.30;;;18.70;99.10;;;;;;5007709;28;20053;-75
2023/07/02 09:11:12;;;;;;;3.88;2.78;;;18.70;98.20;;;;;;4989350;28;20108;-74
2023/07/02 09:13:49;;;;;;;4.07;2.58;;;18.70;98.70;;;;;;4988968;28;20679;-74
2023/07/02 09:16:27;;;;;;;3.25;2.35;;;18.70;98.20;;;;;;4958541;28;20080;-74
2023/07/02 09:19:07;;;;;;;3.83;2.40;;;18.80;98.70;;;;;;4990153;28;20064;-74
2023/07/02 09:21:45;;;;;;;4.25;2.92;;;19.00;98.10;;;;;;5006736;28;20596;-74
2023/07/02 09:24:19;;;;;;;3.58;2.50;;;18.80;97.70;;;;;;4989566;28;20054;-74
2023/07/02 09:26:49;;;;;;;5.45;2.28;;;18.90;97.90;;;;;;5005946;28;20049;-74
2023/07/02 09:29:23;;;;;;;4.78;2.70;;;19.10;98.00;;;;;;4974614;28;20133;-74
2023/07/02 09:31:50;;;;;;;2.80;2.15;;;19.40;97.60;;;;;;4989592;28;20524;-74
2023/07/02 09:34:35;;;;;;;3.65;2.42;;;19.50;97.30;;;;;;5006929;28;20078;-74
2023/07/02 09:37:04;;;;;;;4.10;2.58;;;19.50;97.90;;;;;;5006523;28;20053;-74
2023/07/02 09:39:33;;;;;;;4.43;2.53;;;19.50;97.80;;;;;;4989292;28;20050;-74
2023/07/02 09:42:00;;;;;;;4.53;2.70;;;19.50;98.00;;;;;;4972604;28;20160;-74
2023/07/02 09:44:29;;;;;;;4.93;2.83;;;19.50;97.70;;;;;;5006275;28;20145;-74
2023/07/02 09:47:06;;;;;;;5.47;3.15;;;19.50;97.90;;;;;;4957238;28;20064;-74
2023/07/02 09:49:34;;;;;;;4.93;2.97;;;19.50;98.50;;;;;;4989401;28;20461;-74
2023/07/02 09:52:07;;;;;;;4.43;2.55;;;19.30;97.50;;;;;;5005809;28;20081;-74
2023/07/02 09:54:34;;;;;;;5.30;3.22;;;19.30;97.90;;;;;;4972256;28;20054;-74
2023/07/02 09:57:01;;;;;;;4.57;2.83;;;19.40;96.70;;;;;;4987759;28;20088;-74
2023/07/02 09:59:28;;;;;;;5.50;3.05;;;19.40;96.30;;;;;;4973081;28;20706;-74
2023/07/02 10:01:56;;;;;;;2.90;2.03;;;19.60;96.00;;;;;;4988596;28;20057;-74
2023/07/02 10:04:23;;;;;;;5.18;2.47;;;19.80;96.40;;;;;;4988461;28;20058;-73
2023/07/02 10:06:52;;;;;;;3.33;2.33;;;20.10;96.00;;;;;;5005962;28;20053;-74
2023/07/02 10:09:39;;;;;;;3.63;2.33;;;20.30;96.00;;;;;;4988890;28;20096;-74
2023/07/02 10:12:17;;;;;;;3.35;2.42;;;20.40;95.50;;;;;;4990878;28;20061;-74
2023/07/02 10:14:45;;;;;;;4.25;2.60;;;20.50;95.80;;;;;;4972522;28;20563;-74
2023/07/02 10:17:23;;;;;;;3.17;2.15;;;20.60;95.70;;;;;;4989022;28;20122;-74
2023/07/02 10:19:53;;;;;;;4.05;2.40;;;20.60;96.00;;;;;;5005467;28;20048;-74
2023/07/02 10:22:20;;;;;;;4.03;2.20;;;20.60;95.30;;;;;;5006044;28;20053;-74
2023/07/02 10:25:03;;;;;;;5.90;2.88;;;20.50;95.70;;;;;;5000117;28;20054;-74
2023/07/02 10:27:34;;;;;;;3.20;2.08;;;20.30;96.10;;;;;;5005451;28;20046;-74
2023/07/02 10:30:03;;;;;;;3.67;2.40;;;20.30;96.30;;;;;;4972512;28;20054;-74
2023/07/02 10:32:29;;;;;;;4.47;2.88;;;20.40;96.40;;;;;;4987706;28;20100;-74
2023/07/02 10:34:58;;;;;;;3.80;2.13;;;20.70;95.60;;;;;;4987701;28;20108;-74
2023/07/02 10:37:25;;;;;;;3.90;2.63;;;20.70;95.30;;;;;;4973056;28;20049;-75
2023/07/02 10:39:52;;;;;;;4.88;2.63;;;20.70;95.20;;;;;;4987911;28;20486;-74
2023/07/02 10:42:19;;;;;;;3.60;2.58;;;20.90;95.40;;;;;;4971870;28;20157;-73
2023/07/02 10:44:52;;;;;;;3.28;2.40;;;21.10;95.10;;;;;;4968240;28;20049;-73
2023/07/02 10:47:19;;;;;;;3.33;2.30;;;21.20;95.20;;;;;;4984701;28;20061;-74
2023/07/02 10:49:46;;;;;;;3.88;2.53;;;21.10;95.00;;;;;;4984456;28;20054;-74
2023/07/02 10:52:12;;;;;;;3.20;2.10;;;21.00;93.90;;;;;;4984734;28;20054;-74
2023/07/02 10:54:44;;;;;;;5.45;2.92;;;21.10;94.50;;;;;;4971148;28;20077;-74
2023/07/02 10:57:13;;;;;;;4.72;2.58;;;21.40;94.20;;;;;;4971902;28;20058;-74
2023/07/02 10:59:40;;;;;;;3.47;2.15;;;21.30;93.60;;;;;;4971481;28;20049;-74
2023/07/02 11:02:07;;;;;;;3.67;2.50;;;21.20;93.80;;;;;;4971546;28;20085;-74
2023/07/02 11:04:34;;;;;;;4.93;2.88;;;21.00;94.00;;;;;;4955067;28;20057;-74
2023/07/02 11:07:00;;;;;;;4.50;2.35;;;20.80;94.40;;;;;;4987151;28;20069;-74
2023/07/02 11:09:27;;;;;;;5.38;2.58;;;20.70;94.70;;;;;;4971678;28;20058;-74
2023/07/02 11:11:58;;;;;;;3.97;2.47;;;20.60;94.80;;;;;;4986739;28;20046;-74
2023/07/02 11:14:28;;;;;;;3.53;2.72;;;20.60;94.80;;;;;;4987279;28;20112;-74
2023/07/02 11:16:55;;;;;;;2.88;2.00;;;20.60;94.40;;;;;;5004771;28;20053;-74
2023/07/02 11:19:22;;;;;;;2.50;1.80;;;20.80;94.30;;;;;;4987870;28;20089;-73
2023/07/02 11:21:53;;;;;;;4.47;2.00;;;21.00;93.60;;;;;;4987073;28;20045;-74
2023/07/02 11:24:33;;;;;;;3.00;2.15;;;21.60;93.20;;;;;;4971070;28;20041;-74
2023/07/02 11:27:01;;;;;;;4.47;1.90;;;21.70;93.00;;;;;;5004641;28;20057;-74
2023/07/02 11:29:32;;;;;;;3.50;2.28;;;21.40;92.40;;;;;;5005143;28;20046;-74
2023/07/02 11:32:11;;;;;;;3.85;2.10;;;21.60;92.50;;;;;;4987306;28;20084;-74
2023/07/02 11:34:38;;;;;;;4.32;2.22;;;21.80;92.20;;;;;;4967058;28;20138;-74
2023/07/02 11:37:05;;;;;;;4.78;2.63;;;21.70;92.20;;;;;;4967976;28;20084;-74
2023/07/02 11:39:32;;;;;;;2.72;1.88;;;21.90;92.40;;;;;;4985131;28;20054;-75
2023/07/02 11:41:59;;;;;;;2.35;1.60;;;22.70;92.30;;;;;;4984713;28;20109;-73
2023/07/02 11:44:26;;;;;;;4.28;2.38;;;22.70;91.50;;;;;;5000576;28;20513;-73
2023/07/02 11:46:53;;;;;;;3.00;1.95;;;22.50;90.30;;;;;;5004744;28;20210;-73
2023/07/02 11:49:19;;;;;;;4.40;2.58;;;22.40;91.00;;;;;;4987230;28;20587;-73
2023/07/02 11:51:48;;;;;;;3.33;2.20;;;22.10;91.30;;;;;;4986237;28;20069;-73
2023/07/02 11:54:16;;;;;;;3.13;1.98;;;21.80;91.20;;;;;;4970951;28;20057;-74
2023/07/02 11:56:43;;;;;;;3.70;1.80;;;22.00;90.80;;;;;;4986150;28;20058;-74
2023/07/02 11:59:10;;;;;;;3.47;1.88;;;22.40;90.20;;;;;;5004870;28;20564;-73
2023/07/02 12:01:37;;;;;;;3.42;2.15;;;22.30;90.40;;;;;;4970332;28;20445;-74
2023/07/02 12:04:05;;;;;;;3.92;2.10;;;22.20;90.80;;;;;;4969987;28;20062;-73
2023/07/02 12:06:32;;;;;;;3.13;2.05;;;21.90;91.00;;;;;;4986234;28;20060;-74
2023/07/02 12:08:58;;;;;;;4.70;2.20;;;21.70;91.50;;;;;;4986800;28;20085;-73
2023/07/02 12:11:25;;;;;;;3.67;2.25;;;21.60;91.40;;;;;;4985839;28;20058;-73
2023/07/02 12:13:52;;;;;;;2.78;2.10;;;22.00;90.50;;;;;;4967496;28;20069;-73
2023/07/02 12:16:19;;;;;;;3.10;1.98;;;21.90;90.30;;;;;;4984383;28;20090;-73
2023/07/02 12:18:45;;;;;;;2.42;1.65;;;22.10;90.50;;;;;;4986894;28;20058;-75
2023/07/02 12:21:12;;;;;;;2.53;1.70;;;22.80;89.90;;;;;;4970871;28;20113;-75
2023/07/02 12:23:39;;;;;;;2.72;1.95;;;23.20;89.50;;;;;;4979148;28;20612;-75
2023/07/02 12:26:06;;;;;;;3.45;2.35;;;23.50;88.90;;;;;;4990209;28;20491;-75
2023/07/02 12:28:32;;;;;;;3.35;1.90;;;23.40;89.80;;;;;;4990257;28;20085;-75
2023/07/02 12:30:59;;;;;;;4.35;2.30;;;23.30;89.00;;;;;;5008488;28;20054;-75
2023/07/02 12:33:26;;;;;;;3.53;1.95;;;23.40;88.50;;;;;;4972942;28;20054;-73
2023/07/02 12:35:53;;;;;;;3.20;2.22;;;23.30;88.30;;;;;;5007461;28;20054;-75
2023/07/02 12:38:20;;;;;;;2.50;1.70;;;23.10;87.40;;;;;;4974692;28;20050;-74
2023/07/02 12:40:48;;;;;;;3.92;1.70;;;23.10;87.20;;;;;;4990172;28;20049;-74
2023/07/02 12:43:15;;;;;;;4.05;2.20;;;23.10;86.80;;;;;;4990117;28;20062;-74
2023/07/02 12:45:42;;;;;;;2.65;1.40;;;22.80;87.00;;;;;;4990527;28;20133;-74
2023/07/02 12:48:09;;;;;;;3.65;1.90;;;23.40;86.30;;;;;;4990599;28;20062;-75